createdAt,value
2023-05-02T00:01:36.284Z,18.41
2023-05-02T00:04:04.556Z,18.41
2023-05-02T00:06:32.300Z,18.45
2023-05-02T00:09:00.095Z,18.57
2023-05-02T00:11:27.762Z,18.32
2023-05-02T00:13:55.191Z,18.54
2023-05-02T00:16:22.734Z,18.61
2023-05-02T00:18:50.428Z,18.73
2023-05-02T00:21:17.829Z,18.31
2023-05-02T00:23:45.245Z,18.53
2023-05-02T00:26:12.914Z,18.42
2023-05-02T00:28:41.371Z,18.67
2023-05-02T00:31:09.421Z,18.64
2023-05-02T00:33:37.272Z,18.67
2023-05-02T00:36:04.733Z,18.67
2023-05-02T00:38:32.176Z,18.50
2023-05-02T00:41:00.259Z,18.35
2023-05-02T00:43:30.719Z,18.34
2023-05-02T00:45:58.657Z,18.23
2023-05-02T00:48:26.983Z,18.32
2023-05-02T00:50:54.439Z,18.23
2023-05-02T00:53:21.870Z,18.12
2023-05-02T00:55:49.654Z,18.23
2023-05-02T00:58:19.160Z,18.22
2023-05-02T01:01:02.982Z,18.16
2023-05-02T01:03:40.476Z,18.19
2023-05-02T01:06:08.694Z,18.26
2023-05-02T01:09:01.328Z,18.31
2023-05-02T01:11:41.040Z,18.07
2023-05-02T01:14:11.696Z,18.24
2023-05-02T01:16:42.087Z,18.21
2023-05-02T01:19:13.847Z,17.68
2023-05-02T01:21:41.580Z,18.18
2023-05-02T01:24:19.643Z,17.69
2023-05-02T01:27:08.077Z,18.21
2023-05-02T01:29:36.211Z,18.33
2023-05-02T01:32:04.784Z,18.35
2023-05-02T01:34:33.440Z,18.35
2023-05-02T01:37:01.326Z,18.54
2023-05-02T01:39:29.343Z,18.51
2023-05-02T01:41:58.176Z,18.56
2023-05-02T01:44:27.231Z,18.71
2023-05-02T01:46:55.456Z,18.72
2023-05-02T01:49:24.691Z,18.59
2023-05-02T01:51:52.851Z,18.69
2023-05-02T01:54:21.856Z,18.66
2023-05-02T01:56:50.232Z,18.48
2023-05-02T01:59:20.470Z,18.57
2023-05-02T02:01:48.719Z,18.66
2023-05-02T02:04:16.893Z,18.41
2023-05-02T02:06:47.000Z,18.35
2023-05-02T02:09:14.740Z,18.50
2023-05-02T02:12:11.469Z,18.52
2023-05-02T02:14:43.097Z,18.32
2023-05-02T02:17:16.696Z,18.45
2023-05-02T02:19:44.813Z,18.41
2023-05-02T02:22:13.773Z,18.39
2023-05-02T02:24:41.319Z,18.46
2023-05-02T02:27:09.144Z,18.14
2023-05-02T02:29:36.534Z,18.20
2023-05-02T02:32:04.038Z,18.41
2023-05-02T02:34:31.775Z,18.18
2023-05-02T02:37:09.452Z,18.34
2023-05-02T02:40:14.382Z,18.29
2023-05-02T02:42:56.130Z,18.24
2023-05-02T02:45:35.380Z,18.18
2023-05-02T02:48:29.081Z,18.43
2023-05-02T02:51:22.890Z,18.48
2023-05-02T02:54:22.973Z,18.33
2023-05-02T02:57:02.876Z,18.45
2023-05-02T02:59:34.524Z,18.26
2023-05-02T03:02:06.409Z,18.39
2023-05-02T03:04:44.078Z,18.38
2023-05-02T03:07:11.855Z,18.02
2023-05-02T03:09:43.650Z,18.31
2023-05-02T03:12:12.571Z,18.36
2023-05-02T03:14:41.124Z,18.30
2023-05-02T03:17:08.585Z,18.36
2023-05-02T03:19:37.307Z,18.12
2023-05-02T03:22:05.521Z,18.20
2023-05-02T03:24:33.918Z,18.35
2023-05-02T03:27:01.876Z,18.30
2023-05-02T03:29:29.899Z,18.13
2023-05-02T03:31:57.456Z,18.18
2023-05-02T03:34:25.524Z,18.37
2023-05-02T03:36:53.196Z,18.20
2023-05-02T03:39:20.739Z,18.19
2023-05-02T03:41:48.616Z,18.31
2023-05-02T03:44:17.031Z,18.33
2023-05-02T03:46:44.678Z,18.13
2023-05-02T03:49:12.499Z,18.14
2023-05-02T03:51:41.382Z,18.30
2023-05-02T03:54:09.880Z,18.32
2023-05-02T03:56:41.332Z,18.29
2023-05-02T03:59:11.929Z,18.10
2023-05-02T04:01:40.021Z,18.16
2023-05-02T04:04:08.765Z,18.26
2023-05-02T04:06:36.456Z,18.33
2023-05-02T04:09:04.208Z,18.31
2023-05-02T04:11:32.695Z,18.31
2023-05-02T04:14:00.407Z,18.29
2023-05-02T04:16:27.872Z,18.28
2023-05-02T04:18:56.027Z,18.21
2023-05-02T04:21:23.807Z,18.34
2023-05-02T04:23:51.244Z,18.36
2023-05-02T04:26:19.434Z,18.35
2023-05-02T04:28:47.443Z,18.33
2023-05-02T04:31:15.426Z,17.98
2023-05-02T04:33:44.415Z,18.47
2023-05-02T04:36:12.810Z,18.43
2023-05-02T04:38:40.987Z,18.19
2023-05-02T04:41:09.663Z,18.02
2023-05-02T04:43:38.725Z,18.36
2023-05-02T04:46:06.264Z,18.33
2023-05-02T04:48:34.332Z,18.58
2023-05-02T04:51:01.919Z,18.37
2023-05-02T04:53:29.930Z,18.20
2023-05-02T04:55:57.746Z,18.42
2023-05-02T04:58:25.253Z,18.36
2023-05-02T05:00:54.850Z,18.50
2023-05-02T05:03:22.619Z,18.45
2023-05-02T05:05:50.158Z,18.58
2023-05-02T05:08:18.245Z,18.70
2023-05-02T05:10:46.298Z,18.48
2023-05-02T05:13:14.103Z,18.73
2023-05-02T05:15:42.663Z,18.90
2023-05-02T05:18:10.983Z,18.81
2023-05-02T05:20:38.645Z,18.73
2023-05-02T05:23:06.330Z,19.04
2023-05-02T05:25:35.028Z,19.14
2023-05-02T05:28:02.405Z,19.31
2023-05-02T05:30:31.150Z,19.42
2023-05-02T05:32:59.470Z,19.46
2023-05-02T05:35:26.997Z,19.29
2023-05-02T05:37:55.789Z,19.17
2023-05-02T05:40:23.503Z,19.29
2023-05-02T05:42:51.417Z,19.14
2023-05-02T05:45:19.819Z,18.90
2023-05-02T05:47:47.802Z,19.30
2023-05-02T05:50:15.897Z,19.47
2023-05-02T05:52:44.229Z,18.99
2023-05-02T05:55:11.981Z,19.31
2023-05-02T05:57:39.545Z,19.29
2023-05-02T06:00:08.911Z,19.01
2023-05-02T06:02:43.105Z,18.77
2023-05-02T06:05:12.154Z,19.39
2023-05-02T06:07:39.787Z,17.97
2023-05-02T06:10:07.513Z,19.43
2023-05-02T06:12:35.872Z,19.48
2023-05-02T06:15:03.475Z,19.44
2023-05-02T06:17:31.399Z,19.00
2023-05-02T06:19:59.314Z,19.36
2023-05-02T06:22:27.720Z,19.22
2023-05-02T06:24:55.097Z,19.00
2023-05-02T06:27:22.803Z,19.27
2023-05-02T06:29:53.753Z,19.37
2023-05-02T06:32:21.721Z,19.60
2023-05-02T06:34:49.384Z,19.29
2023-05-02T06:37:16.740Z,18.73
2023-05-02T06:39:44.137Z,18.95
2023-05-02T06:42:11.793Z,19.08
2023-05-02T06:44:39.180Z,19.75
2023-05-02T06:47:07.539Z,19.78
2023-05-02T06:49:35.663Z,18.83
2023-05-02T06:52:03.077Z,19.26
2023-05-02T06:54:30.502Z,19.50
2023-05-02T06:56:58.154Z,19.98
2023-05-02T06:59:25.582Z,20.18
2023-05-02T07:01:52.926Z,19.87
2023-05-02T07:04:21.049Z,20.33
2023-05-02T07:06:48.648Z,19.55
2023-05-02T07:09:16.942Z,19.95
2023-05-02T07:11:44.623Z,19.90
2023-05-02T07:14:12.002Z,19.34
2023-05-02T07:16:39.584Z,20.16
2023-05-02T07:19:07.481Z,19.83
2023-05-02T07:21:34.920Z,20.46
2023-05-02T07:24:02.340Z,20.40
2023-05-02T07:26:30.351Z,20.98
2023-05-02T07:28:57.748Z,20.99
2023-05-02T07:31:25.132Z,21.36
2023-05-02T07:33:52.840Z,20.88
2023-05-02T07:36:20.249Z,21.50
2023-05-02T07:38:47.672Z,21.32
2023-05-02T07:41:15.478Z,21.09
2023-05-02T07:43:43.050Z,21.58
2023-05-02T07:46:11.112Z,21.00
2023-05-02T07:48:38.860Z,21.07
2023-05-02T07:51:10.068Z,21.31
2023-05-02T07:53:37.453Z,21.06
2023-05-02T07:56:08.980Z,21.23
2023-05-02T07:58:39.424Z,21.91
2023-05-02T08:01:07.146Z,21.91
2023-05-02T08:03:35.101Z,21.56
2023-05-02T08:06:02.667Z,21.62
2023-05-02T08:08:30.072Z,21.66
2023-05-02T08:10:57.757Z,21.84
2023-05-02T08:13:25.263Z,21.73
2023-05-02T08:15:57.886Z,21.25
2023-05-02T08:18:25.856Z,20.69
2023-05-02T08:20:55.799Z,21.11
2023-05-02T08:23:23.240Z,21.77
2023-05-02T08:25:50.915Z,21.58
2023-05-02T08:28:18.698Z,21.65
2023-05-02T08:30:46.093Z,22.22
2023-05-02T08:33:13.808Z,22.40
2023-05-02T08:35:41.422Z,22.39
2023-05-02T08:38:08.849Z,22.85
2023-05-02T08:40:42.048Z,22.60
2023-05-02T08:43:12.035Z,22.45
2023-05-02T08:45:41.688Z,22.15
2023-05-02T08:48:11.700Z,22.44
2023-05-02T08:50:41.806Z,22.17
2023-05-02T08:53:11.099Z,22.49
2023-05-02T08:55:40.597Z,22.69
2023-05-02T08:58:11.279Z,22.97
2023-05-02T09:00:42.855Z,23.00
2023-05-02T09:03:48.904Z,23.14
2023-05-02T09:06:18.372Z,23.39
2023-05-02T09:08:49.474Z,22.96
2023-05-02T09:11:17.642Z,22.62
2023-05-02T09:13:49.207Z,22.75
2023-05-02T09:16:20.038Z,22.47
2023-05-02T09:18:52.894Z,23.00
2023-05-02T09:21:27.834Z,23.20
2023-05-02T09:23:57.665Z,23.59
2023-05-02T09:26:31.065Z,23.34
2023-05-02T09:29:01.455Z,22.92
2023-05-02T09:31:54.251Z,23.40
2023-05-02T09:34:21.470Z,23.52
2023-05-02T09:36:51.878Z,23.88
2023-05-02T09:39:25.899Z,23.78
2023-05-02T09:41:54.311Z,23.61
2023-05-02T09:44:24.683Z,23.14
2023-05-02T09:46:57.544Z,23.13
2023-05-02T09:49:40.058Z,23.37
2023-05-02T09:52:14.716Z,23.90
2023-05-02T09:54:42.301Z,24.02
2023-05-02T09:57:11.070Z,24.00
2023-05-02T09:59:42.430Z,24.27
2023-05-02T10:02:12.072Z,23.76
2023-05-02T10:04:40.607Z,23.47
2023-05-02T10:07:10.566Z,23.85
2023-05-02T10:09:43.460Z,24.01
2023-05-02T10:12:15.061Z,23.41
2023-05-02T10:14:49.439Z,24.03
2023-05-02T10:17:29.865Z,24.75
2023-05-02T10:20:01.244Z,24.52
2023-05-02T10:22:29.634Z,24.93
2023-05-02T10:24:58.259Z,24.26
2023-05-02T10:27:26.041Z,24.54
2023-05-02T10:29:54.564Z,24.89
2023-05-02T10:32:23.198Z,25.27
2023-05-02T10:34:51.653Z,24.75
2023-05-02T10:37:20.008Z,25.09
2023-05-02T10:39:47.443Z,25.41
2023-05-02T10:42:15.071Z,25.65
2023-05-02T10:44:42.794Z,26.12
2023-05-02T10:47:28.265Z,24.98
2023-05-02T10:49:58.911Z,24.67
2023-05-02T10:52:30.433Z,24.63
2023-05-02T10:55:17.081Z,24.46
2023-05-02T10:57:59.750Z,24.37
2023-05-02T11:00:30.157Z,24.97
2023-05-02T11:02:58.019Z,25.09
2023-05-02T11:05:26.580Z,25.53
2023-05-02T11:08:17.984Z,25.60
2023-05-02T11:10:47.529Z,25.24
2023-05-02T11:13:15.587Z,24.48
2023-05-02T11:15:42.912Z,24.71
2023-05-02T11:18:12.809Z,25.20
2023-05-02T11:20:42.456Z,25.59
2023-05-02T11:23:16.143Z,25.30
2023-05-02T11:25:48.128Z,25.43
2023-05-02T11:28:34.418Z,25.46
2023-05-02T11:31:02.769Z,25.61
2023-05-02T11:33:30.332Z,25.70
2023-05-02T11:35:58.741Z,25.37
2023-05-02T11:38:27.509Z,25.68
2023-05-02T11:40:57.598Z,25.26
2023-05-02T11:43:28.186Z,25.89
2023-05-02T11:46:00.055Z,25.23
2023-05-02T11:48:28.029Z,25.17
2023-05-02T11:50:57.902Z,25.53
2023-05-02T11:53:27.848Z,25.21
2023-05-02T11:56:04.931Z,25.86
2023-05-02T11:58:33.777Z,25.58
2023-05-02T12:01:15.184Z,25.38
2023-05-02T12:03:43.838Z,25.14
2023-05-02T12:06:13.587Z,25.49
2023-05-02T12:08:43.022Z,25.74
2023-05-02T12:11:13.781Z,25.50
2023-05-02T12:13:48.849Z,25.62
2023-05-02T12:16:17.289Z,25.50
2023-05-02T12:18:45.504Z,25.69
2023-05-02T12:21:13.061Z,26.09
2023-05-02T12:23:42.329Z,25.84
2023-05-02T12:26:31.925Z,25.56
2023-05-02T12:29:00.896Z,25.89
2023-05-02T12:31:31.274Z,25.38
2023-05-02T12:34:00.694Z,25.19
2023-05-02T12:36:28.928Z,25.69
2023-05-02T12:38:59.728Z,25.89
2023-05-02T12:41:37.677Z,25.76
2023-05-02T12:44:06.108Z,25.62
2023-05-02T12:46:33.874Z,25.66
2023-05-02T12:49:12.267Z,25.49
2023-05-02T12:51:41.523Z,25.22
2023-05-02T12:54:08.931Z,25.35
2023-05-02T12:56:40.649Z,24.84
2023-05-02T12:59:08.483Z,25.42
2023-05-02T13:01:36.239Z,25.49
2023-05-02T13:04:04.231Z,25.39
2023-05-02T13:06:32.245Z,24.69
2023-05-02T13:09:00.123Z,25.37
2023-05-02T13:11:28.146Z,25.52
2023-05-02T13:13:56.603Z,24.90
2023-05-02T13:16:24.083Z,24.75
2023-05-02T13:18:51.645Z,25.03
2023-05-02T13:21:19.326Z,24.77
2023-05-02T13:23:51.891Z,25.07
2023-05-02T13:26:19.589Z,24.93
2023-05-02T13:28:47.007Z,24.95
2023-05-02T13:31:14.473Z,25.37
2023-05-02T13:33:42.264Z,25.05
2023-05-02T13:36:09.631Z,24.83
2023-05-02T13:38:37.030Z,24.74
2023-05-02T13:41:05.342Z,25.08
2023-05-02T13:43:32.774Z,24.59
2023-05-02T13:46:00.368Z,24.63
2023-05-02T13:48:28.284Z,24.15
2023-05-02T13:50:55.799Z,23.79
2023-05-02T13:53:23.388Z,24.55
2023-05-02T13:55:51.318Z,24.59
2023-05-02T13:58:18.695Z,24.32
2023-05-02T14:00:47.300Z,24.05
2023-05-02T14:03:15.134Z,24.18
2023-05-02T14:05:43.751Z,24.30
2023-05-02T14:08:12.035Z,23.87
2023-05-02T14:10:39.744Z,24.30
2023-05-02T14:13:07.157Z,24.36
2023-05-02T14:15:34.659Z,23.70
2023-05-02T14:18:02.389Z,23.97
2023-05-02T14:20:29.855Z,23.87
2023-05-02T14:22:57.213Z,24.23
2023-05-02T14:25:24.948Z,24.38
2023-05-02T14:27:52.393Z,24.29
2023-05-02T14:30:19.888Z,24.37
2023-05-02T14:32:47.641Z,25.03
2023-05-02T14:35:15.134Z,24.76
2023-05-02T14:37:45.046Z,24.63
2023-05-02T14:40:14.065Z,24.51
2023-05-02T14:42:42.127Z,24.85
2023-05-02T14:45:10.099Z,25.05
2023-05-02T14:47:38.129Z,24.55
2023-05-02T14:50:06.381Z,24.22
2023-05-02T14:52:33.929Z,24.25
2023-05-02T14:55:02.585Z,23.97
2023-05-02T14:57:30.992Z,23.64
2023-05-02T14:59:58.428Z,23.52
2023-05-02T15:02:26.440Z,23.31
2023-05-02T15:04:53.927Z,23.11
2023-05-02T15:07:21.784Z,23.37
2023-05-02T15:09:49.570Z,23.48
2023-05-02T15:12:16.944Z,23.93
2023-05-02T15:14:44.377Z,24.44
2023-05-02T15:17:12.058Z,24.29
2023-05-02T15:19:39.494Z,24.44
2023-05-02T15:22:06.928Z,23.91
2023-05-02T15:24:34.575Z,24.32
2023-05-02T15:27:01.998Z,24.26
2023-05-02T15:29:29.449Z,24.53
2023-05-02T15:31:57.190Z,24.35
2023-05-02T15:34:24.695Z,24.51
2023-05-02T15:36:52.452Z,24.82
2023-05-02T15:39:20.111Z,24.05
2023-05-02T15:41:48.051Z,23.46
2023-05-02T15:44:15.502Z,23.24
2023-05-02T15:46:46.794Z,23.64
2023-05-02T15:49:15.181Z,23.82
2023-05-02T15:51:42.846Z,23.75
2023-05-02T15:54:10.309Z,23.79
2023-05-02T15:56:37.873Z,23.48
2023-05-02T15:59:05.596Z,23.66
2023-05-02T16:01:33.062Z,23.79
2023-05-02T16:04:01.231Z,23.58
2023-05-02T16:06:28.893Z,23.32
2023-05-02T16:08:56.556Z,23.61
2023-05-02T16:11:24.256Z,23.55
2023-05-02T16:13:52.421Z,23.93
2023-05-02T16:16:19.885Z,23.99
2023-05-02T16:18:47.543Z,23.65
2023-05-02T16:21:15.009Z,23.75
2023-05-02T16:23:42.446Z,23.44
2023-05-02T16:26:10.336Z,23.39
2023-05-02T16:28:37.766Z,23.48
2023-05-02T16:31:11.134Z,23.55
2023-05-02T16:33:39.427Z,23.54
2023-05-02T16:36:07.555Z,23.87
2023-05-02T16:38:36.594Z,23.94
2023-05-02T16:41:07.017Z,23.74
2023-05-02T16:43:34.921Z,23.74
2023-05-02T16:46:03.480Z,23.97
2023-05-02T16:48:31.192Z,24.18
2023-05-02T16:51:01.072Z,24.04
2023-05-02T16:53:30.931Z,23.99
2023-05-02T16:55:59.679Z,24.02
2023-05-02T16:58:28.896Z,23.73
2023-05-02T17:00:56.485Z,23.45
2023-05-02T17:03:24.315Z,23.13
2023-05-02T17:05:51.766Z,23.23
2023-05-02T17:08:19.151Z,22.75
2023-05-02T17:10:50.449Z,23.11
2023-05-02T17:13:17.962Z,23.54
2023-05-02T17:15:45.366Z,23.18
2023-05-02T17:18:13.128Z,23.33
2023-05-02T17:20:41.382Z,22.39
2023-05-02T17:23:09.833Z,22.83
2023-05-02T17:25:38.375Z,23.22
2023-05-02T17:28:06.480Z,23.40
2023-05-02T17:30:33.991Z,23.14
2023-05-02T17:33:01.853Z,23.30
2023-05-02T17:35:29.353Z,23.49
2023-05-02T17:37:56.750Z,23.44
2023-05-02T17:40:24.380Z,23.37
2023-05-02T17:42:51.792Z,23.37
2023-05-02T17:45:19.246Z,23.29
2023-05-02T17:47:47.008Z,23.24
2023-05-02T17:50:14.512Z,23.30
2023-05-02T17:52:42.390Z,23.24
2023-05-02T17:55:10.438Z,23.00
2023-05-02T17:57:37.890Z,23.07
2023-05-02T18:00:08.124Z,23.07
2023-05-02T18:02:40.003Z,22.88
2023-05-02T18:05:08.109Z,22.72
2023-05-02T18:07:35.832Z,22.71
2023-05-02T18:10:05.224Z,22.54
2023-05-02T18:12:33.747Z,22.27
2023-05-02T18:15:03.486Z,22.17
2023-05-02T18:17:31.958Z,21.77
2023-05-02T18:19:59.481Z,21.92
2023-05-02T18:22:27.949Z,21.81
2023-05-02T18:24:55.826Z,21.79
2023-05-02T18:27:23.524Z,21.39
2023-05-02T18:29:51.532Z,21.58
2023-05-02T18:32:19.097Z,21.27
2023-05-02T18:34:46.678Z,20.98
2023-05-02T18:37:14.336Z,20.94
2023-05-02T18:39:42.126Z,21.29
2023-05-02T18:42:10.905Z,20.87
2023-05-02T18:44:38.671Z,20.97
2023-05-02T18:47:06.395Z,20.12
2023-05-02T18:49:33.874Z,20.54
2023-05-02T18:52:03.028Z,20.21
2023-05-02T18:54:30.650Z,20.46
2023-05-02T18:56:58.085Z,20.34
2023-05-02T18:59:25.788Z,20.21
2023-05-02T19:01:53.888Z,20.04
2023-05-02T19:04:21.633Z,20.21
2023-05-02T19:06:49.610Z,19.97
2023-05-02T19:09:18.563Z,20.23
2023-05-02T19:11:46.090Z,20.15
2023-05-02T19:14:13.895Z,19.94
2023-05-02T19:16:41.609Z,20.11
2023-05-02T19:19:10.087Z,20.05
2023-05-02T19:21:38.127Z,19.88
2023-05-02T19:24:05.988Z,19.92
2023-05-02T19:26:33.468Z,19.74
2023-05-02T19:29:01.354Z,19.75
2023-05-02T19:31:28.937Z,19.72
2023-05-02T19:33:56.353Z,19.69
2023-05-02T19:36:24.847Z,19.80
2023-05-02T19:38:54.022Z,20.19
2023-05-02T19:41:24.725Z,20.14
2023-05-02T19:43:52.771Z,20.10
2023-05-02T19:46:20.443Z,20.07
2023-05-02T19:48:48.219Z,20.04
2023-05-02T19:51:16.152Z,20.14
2023-05-02T19:53:43.600Z,20.04
2023-05-02T19:56:11.109Z,20.12
2023-05-02T19:58:39.334Z,20.14
2023-05-02T20:01:07.227Z,20.19
2023-05-02T20:03:35.510Z,20.07
2023-05-02T20:06:03.470Z,20.16
2023-05-02T20:08:31.509Z,20.23
2023-05-02T20:10:59.225Z,20.01
2023-05-02T20:13:27.284Z,20.13
2023-05-02T20:15:54.732Z,19.91
2023-05-02T20:18:22.490Z,19.88
2023-05-02T20:20:49.958Z,19.71
2023-05-02T20:23:17.364Z,19.84
2023-05-02T20:25:45.629Z,19.68
2023-05-02T20:28:13.515Z,19.62
2023-05-02T20:30:42.061Z,19.45
2023-05-02T20:33:15.426Z,19.19
2023-05-02T20:35:44.691Z,19.26
2023-05-02T20:38:12.528Z,19.47
2023-05-02T20:40:40.753Z,19.67
2023-05-02T20:43:09.090Z,19.45
2023-05-02T20:45:36.815Z,19.45
2023-05-02T20:48:04.427Z,19.64
2023-05-02T20:50:32.184Z,19.17
2023-05-02T20:52:59.922Z,19.46
2023-05-02T20:55:27.742Z,19.38
2023-05-02T20:57:55.240Z,19.01
2023-05-02T21:00:22.980Z,19.14
2023-05-02T21:02:50.709Z,19.13
2023-05-02T21:05:18.337Z,19.03
2023-05-02T21:07:46.552Z,18.96
2023-05-02T21:10:15.019Z,19.04
2023-05-02T21:12:42.664Z,18.89
2023-05-02T21:15:10.356Z,18.96
2023-05-02T21:17:39.820Z,18.81
2023-05-02T21:20:07.890Z,19.00
2023-05-02T21:22:35.612Z,18.88
2023-05-02T21:25:03.344Z,18.76
2023-05-02T21:27:30.835Z,19.00
2023-05-02T21:29:58.549Z,19.05
2023-05-02T21:32:26.048Z,19.04
2023-05-02T21:34:53.749Z,19.15
2023-05-02T21:37:22.367Z,19.07
2023-05-02T21:39:49.791Z,18.97
2023-05-02T21:42:17.238Z,18.50
2023-05-02T21:44:44.899Z,19.05
2023-05-02T21:47:12.461Z,18.95
2023-05-02T21:49:40.077Z,18.57
2023-05-02T21:52:07.953Z,18.70
2023-05-02T21:54:35.702Z,19.18
2023-05-02T21:57:03.378Z,19.40
2023-05-02T21:59:31.173Z,19.37
2023-05-02T22:01:58.621Z,19.30
2023-05-02T22:04:26.759Z,19.44
2023-05-02T22:06:54.580Z,19.44
2023-05-02T22:09:22.512Z,19.43
2023-05-02T22:11:50.221Z,19.50
2023-05-02T22:14:17.662Z,19.19
2023-05-02T22:16:45.097Z,19.05
2023-05-02T22:19:14.628Z,19.35
2023-05-02T22:21:42.153Z,19.26
2023-05-02T22:24:09.606Z,19.30
2023-05-02T22:26:37.307Z,19.52
2023-05-02T22:29:04.950Z,19.05
2023-05-02T22:31:32.408Z,19.42
2023-05-02T22:34:00.182Z,19.43
2023-05-02T22:36:27.891Z,19.37
2023-05-02T22:38:55.499Z,19.34
2023-05-02T22:41:23.169Z,19.47
2023-05-02T22:43:50.527Z,19.19
2023-05-02T22:46:18.469Z,19.31
2023-05-02T22:48:46.691Z,19.30
2023-05-02T22:51:14.135Z,19.28
2023-05-02T22:53:41.941Z,19.48
2023-05-02T22:56:09.596Z,19.56
2023-05-02T22:58:37.040Z,19.60
2023-05-02T23:01:04.501Z,19.51
2023-05-02T23:03:32.372Z,19.41
2023-05-02T23:05:59.874Z,19.43
2023-05-02T23:08:27.281Z,19.37
2023-05-02T23:10:55.973Z,19.34
2023-05-02T23:13:23.804Z,19.30
2023-05-02T23:15:54.605Z,19.39
2023-05-02T23:18:22.800Z,19.26
2023-05-02T23:20:50.851Z,19.17
2023-05-02T23:23:18.389Z,19.20
2023-05-02T23:25:46.114Z,19.35
2023-05-02T23:28:13.568Z,19.37
2023-05-02T23:30:41.415Z,19.34
2023-05-02T23:33:09.174Z,19.31
2023-05-02T23:35:36.649Z,19.33
2023-05-02T23:38:08.068Z,19.37
2023-05-02T23:40:36.014Z,19.36
2023-05-02T23:43:03.504Z,19.27
2023-05-02T23:45:30.895Z,19.33
2023-05-02T23:47:58.619Z,19.30
2023-05-02T23:50:26.181Z,19.21
2023-05-02T23:52:53.590Z,19.11
2023-05-02T23:55:21.267Z,19.16
2023-05-02T23:57:48.660Z,19.01
